Siem Pilot — LCPF — position and weather

sailwx.info

Track history (hours):
 
Tides and Currents Weather Stations Pressure Air Temp Water Temp Dewpoint Dewpoint Depression Visibility Wind Speed Wind Dir Waves Ship Positions

Siem Pilot

Last reported at 2014-Dec-11 13:22 UTC. Time now 2014-Dec-20 13:42 UTC.
Position N 57°41' W 001°36'.
Warning: this ship's position is 9 days out of date.

Length 88 m; draft 6.2 m.

Type: Cargo ship. MMSI: 257458000.

Date/timePositionNaut miles runAvg speedWind from/ knotsBaromVisibWave heightAir tempDewpointWater temp
2014-Dec-11 13:22N 57°41' W 001°36'8 9.5
2014-Dec-11 12:33N 57°34' W 001°41'5 5.4
2014-Dec-11 11:33N 57°30' W 001°47'0 0.0
2014-Dec-11 10:33N 57°30' W 001°47'0 0.0
2014-Dec-11 09:33N 57°30' W 001°47'0 0.0
2014-Dec-11 08:33N 57°30' W 001°47'0 0.0
2014-Dec-11 07:33N 57°30' W 001°47'0 0.0
2014-Dec-11 06:33N 57°30' W 001°47'0 0.0
2014-Dec-11 05:33N 57°30' W 001°47'0 0.0
2014-Dec-11 04:33N 57°30' W 001°47'0 0.0
2014-Dec-11 03:33N 57°30' W 001°47'0 0.0
2014-Dec-11 02:33N 57°30' W 001°47'0 0.0
2014-Dec-11 01:33N 57°30' W 001°47'0 0.1
2014-Dec-11 00:33N 57°30' W 001°47'5 5.3
2014-Dec-10 23:33N 57°32' W 001°39'1010.1
2014-Dec-10 22:33N 57°41' W 001°31'9 8.7
2014-Dec-10 21:33N 57°49' W 001°23'  
2014-Dec-05 07:19N 60°58' E 000°57'0 0.0
2014-Dec-05 06:16N 60°58' E 000°57'0 0.0
2014-Dec-05 05:33N 60°58' E 000°57'0 0.0
2014-Dec-05 04:22N 60°58' E 000°57'0 0.0
2014-Dec-05 03:33N 60°58' E 000°57'0 0.0
2014-Dec-05 02:33N 60°58' E 000°57'0 0.0
2014-Dec-05 01:33N 60°58' E 000°57'0 0.0
2014-Dec-05 00:33N 60°58' E 000°57'0 0.0
2014-Dec-04 23:33N 60°58' E 000°57'0 0.0
2014-Dec-04 22:33N 60°58' E 000°57'0 0.0
2014-Dec-04 21:33N 60°58' E 000°57'0 0.0
2014-Dec-04 20:34N 60°58' E 000°57'0 0.0
2014-Dec-04 13:05N 60°58' E 000°57'0 0.0
2014-Dec-04 11:33N 60°58' E 000°57'0 0.0
2014-Dec-04 10:21N 60°58' E 000°57'0 0.0
2014-Dec-04 09:31N 60°58' E 000°57'0 0.0
2014-Dec-04 08:13N 60°58' E 000°57'0 0.0
2014-Dec-04 07:22N 60°58' E 000°57'0 0.0
2014-Dec-04 06:33N 60°58' E 000°57'0 0.0
2014-Dec-04 03:29N 60°58' E 000°57'0 0.2
2014-Dec-04 02:04N 60°57' E 000°56'0 0.3
2014-Dec-04 01:34N 60°57' E 000°56'0 0.0
2014-Dec-04 00:33N 60°57' E 000°56'0 0.0
2014-Dec-03 23:33N 60°57' E 000°56'0 0.2
2014-Dec-03 22:32N 60°57' E 000°56'  
Track history (hours):
 
Tides and Currents Weather Stations Pressure Air Temp Water Temp Dewpoint Dewpoint Depression Visibility Wind Speed Wind Dir Waves Ship Positions

Siem Pilot

Last reported at 2014-Dec-11 13:22 UTC. Time now 2014-Dec-20 13:42 UTC.
Position N 57°41' W 001°36'.
Warning: this ship's position is 9 days out of date.

Length 88 m; draft 6.2 m.

Type: Cargo ship. MMSI: 257458000.

Date/timePositionNaut miles runAvg speedWind from/ knotsBaromVisibWave heightAir tempDewpointWater temp
2014-Dec-11 13:22N 57°41' W 001°36'8 9.5
2014-Dec-11 12:33N 57°34' W 001°41'5 5.4
2014-Dec-11 11:33N 57°30' W 001°47'0 0.0
2014-Dec-11 10:33N 57°30' W 001°47'0 0.0
2014-Dec-11 09:33N 57°30' W 001°47'0 0.0
2014-Dec-11 08:33N 57°30' W 001°47'0 0.0
2014-Dec-11 07:33N 57°30' W 001°47'0 0.0
2014-Dec-11 06:33N 57°30' W 001°47'0 0.0
2014-Dec-11 05:33N 57°30' W 001°47'0 0.0
2014-Dec-11 04:33N 57°30' W 001°47'0 0.0
2014-Dec-11 03:33N 57°30' W 001°47'0 0.0
2014-Dec-11 02:33N 57°30' W 001°47'0 0.0
2014-Dec-11 01:33N 57°30' W 001°47'0 0.1
2014-Dec-11 00:33N 57°30' W 001°47'5 5.3
2014-Dec-10 23:33N 57°32' W 001°39'1010.1
2014-Dec-10 22:33N 57°41' W 001°31'9 8.7
2014-Dec-10 21:33N 57°49' W 001°23'  
2014-Dec-05 07:19N 60°58' E 000°57'0 0.0
2014-Dec-05 06:16N 60°58' E 000°57'0 0.0
2014-Dec-05 05:33N 60°58' E 000°57'0 0.0
2014-Dec-05 04:22N 60°58' E 000°57'0 0.0
2014-Dec-05 03:33N 60°58' E 000°57'0 0.0
2014-Dec-05 02:33N 60°58' E 000°57'0 0.0
2014-Dec-05 01:33N 60°58' E 000°57'0 0.0
2014-Dec-05 00:33N 60°58' E 000°57'0 0.0
2014-Dec-04 23:33N 60°58' E 000°57'0 0.0
2014-Dec-04 22:33N 60°58' E 000°57'0 0.0
2014-Dec-04 21:33N 60°58' E 000°57'0 0.0
2014-Dec-04 20:34N 60°58' E 000°57'0 0.0
2014-Dec-04 13:05N 60°58' E 000°57'0 0.0
2014-Dec-04 11:33N 60°58' E 000°57'0 0.0
2014-Dec-04 10:21N 60°58' E 000°57'0 0.0
2014-Dec-04 09:31N 60°58' E 000°57'0 0.0
2014-Dec-04 08:13N 60°58' E 000°57'0 0.0
2014-Dec-04 07:22N 60°58' E 000°57'0 0.0
2014-Dec-04 06:33N 60°58' E 000°57'0 0.0
2014-Dec-04 03:29N 60°58' E 000°57'0 0.2
2014-Dec-04 02:04N 60°57' E 000°56'0 0.3
2014-Dec-04 01:34N 60°57' E 000°56'0 0.0
2014-Dec-04 00:33N 60°57' E 000°56'0 0.0
2014-Dec-03 23:33N 60°57' E 000°56'0 0.2
2014-Dec-03 22:32N 60°57' E 000°56'  

Dump ship's entire track history